sensor_id;sensor_type;location;lat;lon;timestamp;pressure;altitude;pressure_sealevel;temperature;humidity
59337;BME280;45115;52.002;4.686;2022-08-25T00:00:58;101733.47;;;21.70;100.00
59337;BME280;45115;52.002;4.686;2022-08-25T00:03:25;101735.09;;;21.71;100.00
59337;BME280;45115;52.002;4.686;2022-08-25T00:05:53;101723.63;;;21.65;100.00
59337;BME280;45115;52.002;4.686;2022-08-25T00:08:20;101727.28;;;21.69;100.00
59337;BME280;45115;52.002;4.686;2022-08-25T00:10:46;101722.06;;;21.73;100.00
59337;BME280;45115;52.002;4.686;2022-08-25T00:13:13;101726.66;;;21.72;100.00
59337;BME280;45115;52.002;4.686;2022-08-25T00:15:39;101718.56;;;21.63;100.00
59337;BME280;45115;52.002;4.686;2022-08-25T00:18:06;101725.22;;;21.66;100.00
59337;BME280;45115;52.002;4.686;2022-08-25T00:20:32;101719.22;;;21.60;100.00
59337;BME280;45115;52.002;4.686;2022-08-25T00:23:00;101716.84;;;21.59;100.00
59337;BME280;45115;52.002;4.686;2022-08-25T00:25:27;101713.50;;;21.53;100.00
59337;BME280;45115;52.002;4.686;2022-08-25T00:27:54;101718.13;;;21.53;100.00
59337;BME280;45115;52.002;4.686;2022-08-25T00:30:21;101719.22;;;21.51;100.00
59337;BME280;45115;52.002;4.686;2022-08-25T00:32:48;101720.19;;;21.47;100.00
59337;BME280;45115;52.002;4.686;2022-08-25T00:35:15;101721.94;;;21.43;100.00
59337;BME280;45115;52.002;4.686;2022-08-25T00:37:41;101723.69;;;21.30;100.00
59337;BME280;45115;52.002;4.686;2022-08-25T00:40:10;101718.63;;;21.37;100.00
59337;BME280;45115;52.002;4.686;2022-08-25T00:42:37;101716.72;;;21.37;100.00
59337;BME280;45115;52.002;4.686;2022-08-25T00:45:06;101714.66;;;21.34;100.00
59337;BME280;45115;52.002;4.686;2022-08-25T00:47:33;101715.47;;;21.26;100.00
59337;BME280;45115;52.002;4.686;2022-08-25T00:50:02;101709.44;;;21.20;100.00
59337;BME280;45115;52.002;4.686;2022-08-25T00:52:33;101710.22;;;21.21;100.00
59337;BME280;45115;52.002;4.686;2022-08-25T00:55:06;101713.06;;;21.24;100.00
59337;BME280;45115;52.002;4.686;2022-08-25T00:57:38;101701.84;;;21.14;100.00
59337;BME280;45115;52.002;4.686;2022-08-25T01:00:08;101698.34;;;21.04;100.00
59337;BME280;45115;52.002;4.686;2022-08-25T01:02:36;101697.53;;;21.04;100.00
59337;BME280;45115;52.002;4.686;2022-08-25T01:05:03;101696.75;;;21.12;100.00
59337;BME280;45115;52.002;4.686;2022-08-25T01:07:30;101703.44;;;21.06;100.00
59337;BME280;45115;52.002;4.686;2022-08-25T01:09:58;101694.22;;;21.07;100.00
59337;BME280;45115;52.002;4.686;2022-08-25T01:12:25;101693.56;;;21.01;100.00
59337;BME280;45115;52.002;4.686;2022-08-25T01:14:54;101699.47;;;21.03;100.00
59337;BME280;45115;52.002;4.686;2022-08-25T01:17:22;101695.50;;;20.92;100.00
59337;BME280;45115;52.002;4.686;2022-08-25T01:19:52;101686.91;;;20.90;100.00
59337;BME280;45115;52.002;4.686;2022-08-25T01:22:21;101691.81;;;20.79;100.00
59337;BME280;45115;52.002;4.686;2022-08-25T01:24:56;101684.50;;;20.79;100.00
59337;BME280;45115;52.002;4.686;2022-08-25T01:27:24;101687.19;;;20.79;100.00
59337;BME280;45115;52.002;4.686;2022-08-25T01:29:51;101693.25;;;20.76;100.00
59337;BME280;45115;52.002;4.686;2022-08-25T01:32:18;101694.47;;;20.70;100.00
59337;BME280;45115;52.002;4.686;2022-08-25T01:34:45;101695.59;;;20.60;100.00
59337;BME280;45115;52.002;4.686;2022-08-25T01:37:13;101693.84;;;20.55;100.00
59337;BME280;45115;52.002;4.686;2022-08-25T01:39:42;101692.28;;;20.63;100.00
59337;BME280;45115;52.002;4.686;2022-08-25T01:42:18;101690.06;;;20.74;100.00
59337;BME280;45115;52.002;4.686;2022-08-25T01:44:49;101686.59;;;20.74;100.00
59337;BME280;45115;52.002;4.686;2022-08-25T01:47:16;101682.16;;;20.87;100.00
59337;BME280;45115;52.002;4.686;2022-08-25T01:49:43;101683.75;;;20.88;100.00
59337;BME280;45115;52.002;4.686;2022-08-25T01:52:14;101679.91;;;20.80;100.00
59337;BME280;45115;52.002;4.686;2022-08-25T01:54:42;101676.41;;;20.79;100.00
59337;BME280;45115;52.002;4.686;2022-08-25T01:57:09;101678.16;;;20.75;100.00
59337;BME280;45115;52.002;4.686;2022-08-25T01:59:35;101674.69;;;20.66;100.00
59337;BME280;45115;52.002;4.686;2022-08-25T02:02:03;101671.78;;;20.62;100.00
59337;BME280;45115;52.002;4.686;2022-08-25T02:04:29;101674.69;;;20.66;100.00
59337;BME280;45115;52.002;4.686;2022-08-25T02:06:57;101670.88;;;20.67;100.00
59337;BME280;45115;52.002;4.686;2022-08-25T02:09:23;101670.22;;;20.70;100.00
59337;BME280;45115;52.002;4.686;2022-08-25T02:11:51;101666.59;;;20.66;100.00
59337;BME280;45115;52.002;4.686;2022-08-25T02:14:18;101668.94;;;20.58;100.00
59337;BME280;45115;52.002;4.686;2022-08-25T02:16:47;101668.63;;;20.51;100.00
59337;BME280;45115;52.002;4.686;2022-08-25T02:19:15;101664.19;;;20.47;100.00
59337;BME280;45115;52.002;4.686;2022-08-25T02:21:42;101655.78;;;20.57;100.00
59337;BME280;45115;52.002;4.686;2022-08-25T02:24:09;101652.00;;;20.58;100.00
59337;BME280;45115;52.002;4.686;2022-08-25T02:26:36;101654.50;;;20.45;100.00
59337;BME280;45115;52.002;4.686;2022-08-25T02:29:05;101652.63;;;20.55;100.00
59337;BME280;45115;52.002;4.686;2022-08-25T02:31:33;101660.69;;;20.55;100.00
59337;BME280;45115;52.002;4.686;2022-08-25T02:34:00;101655.63;;;20.44;100.00
59337;BME280;45115;52.002;4.686;2022-08-25T02:36:27;101659.25;;;20.40;100.00
59337;BME280;45115;52.002;4.686;2022-08-25T02:38:57;101646.09;;;20.29;100.00
59337;BME280;45115;52.002;4.686;2022-08-25T02:41:25;101652.91;;;20.36;100.00
59337;BME280;45115;52.002;4.686;2022-08-25T02:43:52;101638.94;;;20.25;100.00
59337;BME280;45115;52.002;4.686;2022-08-25T02:46:21;101645.13;;;20.25;100.00
59337;BME280;45115;52.002;4.686;2022-08-25T02:48:49;101639.28;;;20.23;100.00
59337;BME280;45115;52.002;4.686;2022-08-25T02:51:18;101636.38;;;20.20;100.00
59337;BME280;45115;52.002;4.686;2022-08-25T02:53:45;101628.16;;;20.16;100.00
59337;BME280;45115;52.002;4.686;2022-08-25T02:56:13;101631.00;;;20.20;100.00
59337;BME280;45115;52.002;4.686;2022-08-25T02:58:41;101628.66;;;20.18;100.00
59337;BME280;45115;52.002;4.686;2022-08-25T03:01:09;101620.41;;;20.32;100.00
59337;BME280;45115;52.002;4.686;2022-08-25T03:03:39;101617.72;;;20.32;100.00
59337;BME280;45115;52.002;4.686;2022-08-25T03:06:07;101624.38;;;20.35;100.00
59337;BME280;45115;52.002;4.686;2022-08-25T03:08:34;101620.88;;;20.34;100.00
59337;BME280;45115;52.002;4.686;2022-08-25T03:11:01;101614.22;;;20.40;100.00
59337;BME280;45115;52.002;4.686;2022-08-25T03:13:27;101615.34;;;20.39;100.00
59337;BME280;45115;52.002;4.686;2022-08-25T03:15:54;101606.47;;;20.48;100.00
59337;BME280;45115;52.002;4.686;2022-08-25T03:18:21;101609.34;;;20.42;100.00
59337;BME280;45115;52.002;4.686;2022-08-25T03:20:49;101611.38;;;20.37;100.00
59337;BME280;45115;52.002;4.686;2022-08-25T03:23:16;101602.00;;;20.25;100.00
59337;BME280;45115;52.002;4.686;2022-08-25T03:25:43;101608.53;;;20.24;100.00
59337;BME280;45115;52.002;4.686;2022-08-25T03:28:28;101604.56;;;20.22;100.00
59337;BME280;45115;52.002;4.686;2022-08-25T03:30:55;101603.59;;;20.17;100.00
59337;BME280;45115;52.002;4.686;2022-08-25T03:33:24;101595.34;;;20.23;100.00
59337;BME280;45115;52.002;4.686;2022-08-25T03:35:52;101594.22;;;20.15;100.00
59337;BME280;45115;52.002;4.686;2022-08-25T03:38:19;101599.78;;;20.18;100.00
59337;BME280;45115;52.002;4.686;2022-08-25T03:40:47;101592.97;;;20.12;100.00
59337;BME280;45115;52.002;4.686;2022-08-25T03:43:14;101584.41;;;20.10;100.00
59337;BME280;45115;52.002;4.686;2022-08-25T03:45:42;101584.06;;;20.03;100.00
59337;BME280;45115;52.002;4.686;2022-08-25T03:48:09;101586.75;;;20.03;100.00
59337;BME280;45115;52.002;4.686;2022-08-25T03:50:36;101577.53;;;19.95;100.00
59337;BME280;45115;52.002;4.686;2022-08-25T03:53:10;101570.88;;;19.92;100.00
59337;BME280;45115;52.002;4.686;2022-08-25T03:55:36;101570.88;;;19.92;100.00
59337;BME280;45115;52.002;4.686;2022-08-25T03:58:03;101569.75;;;19.94;100.00
59337;BME280;45115;52.002;4.686;2022-08-25T04:00:29;101563.91;;;19.91;100.00
59337;BME280;45115;52.002;4.686;2022-08-25T04:02:56;101566.13;;;19.89;100.00
59337;BME280;45115;52.002;4.686;2022-08-25T04:05:23;101564.03;;;19.86;99.80
59337;BME280;45115;52.002;4.686;2022-08-25T04:07:50;101568.47;;;19.91;98.71
59337;BME280;45115;52.002;4.686;2022-08-25T04:10:18;101563.91;;;19.91;98.22
59337;BME280;45115;52.002;4.686;2022-08-25T04:12:44;101566.13;;;19.89;98.16
59337;BME280;45115;52.002;4.686;2022-08-25T04:15:11;101567.72;;;19.90;98.00
59337;BME280;45115;52.002;4.686;2022-08-25T04:17:38;101558.97;;;19.85;97.54
59337;BME280;45115;52.002;4.686;2022-08-25T04:20:06;101557.84;;;19.77;97.39
59337;BME280;45115;52.002;4.686;2022-08-25T04:22:33;101557.69;;;19.73;97.39
59337;BME280;45115;52.002;4.686;2022-08-25T04:25:01;101547.72;;;19.74;97.17
59337;BME280;45115;52.002;4.686;2022-08-25T04:27:29;101549.59;;;19.73;97.46
59337;BME280;45115;52.002;4.686;2022-08-25T04:29:55;101559.41;;;19.69;96.91
59337;BME280;45115;52.002;4.686;2022-08-25T04:32:22;101553.25;;;19.69;96.87
59337;BME280;45115;52.002;4.686;2022-08-25T04:34:49;101552.75;;;19.67;96.67
59337;BME280;45115;52.002;4.686;2022-08-25T04:37:15;101551.31;;;19.60;97.43
59337;BME280;45115;52.002;4.686;2022-08-25T04:39:42;101563.31;;;19.54;97.34
59337;BME280;45115;52.002;4.686;2022-08-25T04:42:09;101564.28;;;19.49;97.67
59337;BME280;45115;52.002;4.686;2022-08-25T04:44:37;101557.09;;;19.45;97.59
59337;BME280;45115;52.002;4.686;2022-08-25T04:47:04;101560.09;;;19.43;97.92
59337;BME280;45115;52.002;4.686;2022-08-25T04:49:30;101558.81;;;19.41;97.03
59337;BME280;45115;52.002;4.686;2022-08-25T04:51:58;101556.94;;;19.41;97.14
59337;BME280;45115;52.002;4.686;2022-08-25T04:54:24;101563.41;;;19.31;97.87
59337;BME280;45115;52.002;4.686;2022-08-25T04:56:52;101554.81;;;19.29;97.75
59337;BME280;45115;52.002;4.686;2022-08-25T04:59:19;101564.44;;;19.21;98.06
59337;BME280;45115;52.002;4.686;2022-08-25T05:01:47;101558.28;;;19.21;97.99
59337;BME280;45115;52.002;4.686;2022-08-25T05:04:15;101564.94;;;19.23;97.36
59337;BME280;45115;52.002;4.686;2022-08-25T05:06:42;101563.03;;;19.24;97.38
59337;BME280;45115;52.002;4.686;2022-08-25T05:09:09;101567.81;;;19.27;96.57
59337;BME280;45115;52.002;4.686;2022-08-25T05:11:36;101566.41;;;19.30;96.47
59337;BME280;45115;52.002;4.686;2022-08-25T05:14:03;101559.72;;;19.27;96.42
59337;BME280;45115;52.002;4.686;2022-08-25T05:16:35;101562.44;;;19.27;96.18
59337;BME280;45115;52.002;4.686;2022-08-25T05:19:04;101567.66;;;19.32;96.21
59337;BME280;45115;52.002;4.686;2022-08-25T05:21:30;101565.47;;;19.43;94.81
59337;BME280;45115;52.002;4.686;2022-08-25T05:23:58;101571.69;;;19.44;94.81
59337;BME280;45115;52.002;4.686;2022-08-25T05:26:27;101574.22;;;19.49;93.74
59337;BME280;45115;52.002;4.686;2022-08-25T05:28:56;101578.53;;;19.59;93.13
59337;BME280;45115;52.002;4.686;2022-08-25T05:31:25;101576.34;;;19.61;92.42
59337;BME280;45115;52.002;4.686;2022-08-25T05:33:52;101580.94;;;19.69;91.88
59337;BME280;45115;52.002;4.686;2022-08-25T05:36:22;101569.25;;;19.74;91.50
59337;BME280;45115;52.002;4.686;2022-08-25T05:38:49;101578.59;;;19.76;91.58
59337;BME280;45115;52.002;4.686;2022-08-25T05:41:16;101575.56;;;19.78;91.22
59337;BME280;45115;52.002;4.686;2022-08-25T05:43:45;101582.59;;;19.88;90.56
59337;BME280;45115;52.002;4.686;2022-08-25T05:46:14;101576.47;;;20.05;89.96
59337;BME280;45115;52.002;4.686;2022-08-25T05:48:41;101577.31;;;20.23;88.63
59337;BME280;45115;52.002;4.686;2022-08-25T05:51:09;101585.06;;;20.42;88.11
59337;BME280;45115;52.002;4.686;2022-08-25T05:53:39;101585.72;;;20.66;86.28
59337;BME280;45115;52.002;4.686;2022-08-25T05:56:06;101590.91;;;20.80;84.42
59337;BME280;45115;52.002;4.686;2022-08-25T05:58:34;101594.38;;;20.80;84.73
59337;BME280;45115;52.002;4.686;2022-08-25T06:01:01;101586.81;;;20.74;84.58
59337;BME280;45115;52.002;4.686;2022-08-25T06:03:48;101584.56;;;20.76;84.70
59337;BME280;45115;52.002;4.686;2022-08-25T06:06:15;101583.94;;;20.70;85.49
59337;BME280;45115;52.002;4.686;2022-08-25T06:08:43;101587.28;;;20.76;85.42
59337;BME280;45115;52.002;4.686;2022-08-25T06:11:10;101580.16;;;20.71;86.17
59337;BME280;45115;52.002;4.686;2022-08-25T06:13:37;101574.09;;;20.83;85.10
59337;BME280;45115;52.002;4.686;2022-08-25T06:16:04;101579.34;;;20.88;84.93
59337;BME280;45115;52.002;4.686;2022-08-25T06:18:30;101583.94;;;20.96;84.28
59337;BME280;45115;52.002;4.686;2022-08-25T06:20:57;101582.19;;;21.01;85.11
59337;BME280;45115;52.002;4.686;2022-08-25T06:23:24;101571.41;;;21.01;84.25
59337;BME280;45115;52.002;4.686;2022-08-25T06:25:52;101571.41;;;21.01;84.78
59337;BME280;45115;52.002;4.686;2022-08-25T06:28:20;101561.06;;;21.03;84.41
59337;BME280;45115;52.002;4.686;2022-08-25T06:30:47;101566.47;;;21.03;84.23
59337;BME280;45115;52.002;4.686;2022-08-25T06:33:14;101562.03;;;20.98;83.90
59337;BME280;45115;52.002;4.686;2022-08-25T06:35:41;101568.06;;;20.95;84.47
59337;BME280;45115;52.002;4.686;2022-08-25T06:38:08;101573.94;;;20.97;83.66
59337;BME280;45115;52.002;4.686;2022-08-25T06:40:34;101576.13;;;21.04;84.30
59337;BME280;45115;52.002;4.686;2022-08-25T06:43:03;101577.41;;;21.15;83.14
59337;BME280;45115;52.002;4.686;2022-08-25T06:45:33;101579.56;;;21.22;82.71
59337;BME280;45115;52.002;4.686;2022-08-25T06:47:59;101574.31;;;21.34;81.17
59337;BME280;45115;52.002;4.686;2022-08-25T06:50:26;101583.72;;;21.58;79.64
59337;BME280;45115;52.002;4.686;2022-08-25T06:52:52;101585.41;;;21.81;77.80
59337;BME280;45115;52.002;4.686;2022-08-25T06:55:19;101588.47;;;22.00;76.69
59337;BME280;45115;52.002;4.686;2022-08-25T06:57:45;101585.19;;;22.16;76.69
59337;BME280;45115;52.002;4.686;2022-08-25T07:00:14;101592.28;;;22.21;75.06
59337;BME280;45115;52.002;4.686;2022-08-25T07:02:41;101588.09;;;22.53;74.98
59337;BME280;45115;52.002;4.686;2022-08-25T07:05:08;101587.22;;;22.62;73.92
59337;BME280;45115;52.002;4.686;2022-08-25T07:07:36;101585.06;;;22.55;73.03
59337;BME280;45115;52.002;4.686;2022-08-25T07:10:03;101583.19;;;22.68;71.49
59337;BME280;45115;52.002;4.686;2022-08-25T07:12:30;101582.44;;;22.80;71.25
59337;BME280;45115;52.002;4.686;2022-08-25T07:14:56;101577.03;;;22.80;71.26
59337;BME280;45115;52.002;4.686;2022-08-25T07:17:24;101577.78;;;22.68;71.23
59337;BME280;45115;52.002;4.686;2022-08-25T07:19:51;101575.81;;;22.90;70.66
59337;BME280;45115;52.002;4.686;2022-08-25T07:22:17;101576.88;;;23.22;69.98
59337;BME280;45115;52.002;4.686;2022-08-25T07:24:44;101584.59;;;23.70;68.54
59337;BME280;45115;52.002;4.686;2022-08-25T07:27:11;101579.81;;;24.05;66.49
59337;BME280;45115;52.002;4.686;2022-08-25T07:29:37;101583.53;;;24.12;65.44
59337;BME280;45115;52.002;4.686;2022-08-25T07:32:04;101582.34;;;24.38;64.70
59337;BME280;45115;52.002;4.686;2022-08-25T07:34:33;101574.47;;;24.49;63.70
59337;BME280;45115;52.002;4.686;2022-08-25T07:37:17;101573.91;;;24.56;63.39
59337;BME280;45115;52.002;4.686;2022-08-25T07:39:44;101571.56;;;24.71;62.53
59337;BME280;45115;52.002;4.686;2022-08-25T07:42:11;101578.22;;;25.02;61.29
59337;BME280;45115;52.002;4.686;2022-08-25T07:44:38;101571.34;;;25.40;59.55
59337;BME280;45115;52.002;4.686;2022-08-25T07:47:05;101574.50;;;25.74;58.61
59337;BME280;45115;52.002;4.686;2022-08-25T07:49:33;101585.47;;;26.18;57.62
59337;BME280;45115;52.002;4.686;2022-08-25T07:52:00;101594.19;;;26.43;56.85
59337;BME280;45115;52.002;4.686;2022-08-25T07:54:26;101587.38;;;26.76;56.47
59337;BME280;45115;52.002;4.686;2022-08-25T07:56:53;101587.66;;;27.38;54.79
59337;BME280;45115;52.002;4.686;2022-08-25T07:59:20;101588.72;;;27.33;53.55
59337;BME280;45115;52.002;4.686;2022-08-25T08:01:46;101590.50;;;27.49;53.14
59337;BME280;45115;52.002;4.686;2022-08-25T08:04:13;101594.72;;;27.69;52.33
59337;BME280;45115;52.002;4.686;2022-08-25T08:06:41;101598.13;;;27.90;52.46
59337;BME280;45115;52.002;4.686;2022-08-25T08:09:08;101597.47;;;27.69;51.50
59337;BME280;45115;52.002;4.686;2022-08-25T08:11:36;101598.06;;;27.86;51.39
59337;BME280;45115;52.002;4.686;2022-08-25T08:14:05;101599.81;;;28.02;50.81
59337;BME280;45115;52.002;4.686;2022-08-25T08:16:32;101599.59;;;28.14;51.44
59337;BME280;45115;52.002;4.686;2022-08-25T08:19:00;101596.13;;;28.17;50.60
59337;BME280;45115;52.002;4.686;2022-08-25T08:21:29;101590.25;;;28.15;50.49
59337;BME280;45115;52.002;4.686;2022-08-25T08:23:58;101594.19;;;28.18;50.70
59337;BME280;45115;52.002;4.686;2022-08-25T08:26:25;101596.06;;;28.86;49.36
59337;BME280;45115;52.002;4.686;2022-08-25T08:28:52;101595.94;;;29.13;47.71
59337;BME280;45115;52.002;4.686;2022-08-25T08:31:19;101590.81;;;29.53;47.69
59337;BME280;45115;52.002;4.686;2022-08-25T08:33:47;101591.59;;;29.57;46.44
59337;BME280;45115;52.002;4.686;2022-08-25T08:36:13;101590.97;;;29.89;47.05
59337;BME280;45115;52.002;4.686;2022-08-25T08:38:41;101594.94;;;30.03;45.41
59337;BME280;45115;52.002;4.686;2022-08-25T08:41:20;101594.72;;;30.41;43.17
59337;BME280;45115;52.002;4.686;2022-08-25T08:44:17;101593.56;;;30.60;42.01
59337;BME280;45115;52.002;4.686;2022-08-25T08:46:58;101587.34;;;30.81;40.90
59337;BME280;45115;52.002;4.686;2022-08-25T08:49:33;101594.38;;;30.97;40.49
59337;BME280;45115;52.002;4.686;2022-08-25T08:52:02;101595.97;;;30.83;41.16
59337;BME280;45115;52.002;4.686;2022-08-25T08:54:33;101595.16;;;30.83;40.36
59337;BME280;45115;52.002;4.686;2022-08-25T08:57:08;101594.75;;;30.59;40.93
59337;BME280;45115;52.002;4.686;2022-08-25T08:59:42;101601.75;;;30.38;41.23
59337;BME280;45115;52.002;4.686;2022-08-25T09:02:15;101602.53;;;30.57;41.56
59337;BME280;45115;52.002;4.686;2022-08-25T09:04:47;101603.81;;;31.03;40.43
59337;BME280;45115;52.002;4.686;2022-08-25T09:07:19;101599.84;;;31.19;40.31
59337;BME280;45115;52.002;4.686;2022-08-25T09:09:46;101591.66;;;30.93;40.19
59337;BME280;45115;52.002;4.686;2022-08-25T09:12:25;101590.47;;;30.94;40.91
59337;BME280;45115;52.002;4.686;2022-08-25T09:15:04;101590.88;;;31.14;40.15
59337;BME280;45115;52.002;4.686;2022-08-25T09:17:52;101592.81;;;31.14;39.88
59337;BME280;45115;52.002;4.686;2022-08-25T09:20:34;101588.09;;;31.25;39.71
59337;BME280;45115;52.002;4.686;2022-08-25T09:23:14;101590.81;;;31.58;38.52
59337;BME280;45115;52.002;4.686;2022-08-25T09:25:48;101600.19;;;31.68;37.47
59337;BME280;45115;52.002;4.686;2022-08-25T09:28:20;101590.75;;;31.91;36.35
59337;BME280;45115;52.002;4.686;2022-08-25T09:30:54;101600.44;;;32.10;36.76
59337;BME280;45115;52.002;4.686;2022-08-25T09:33:24;101584.69;;;32.25;36.55
59337;BME280;45115;52.002;4.686;2022-08-25T09:35:53;101593.69;;;32.29;35.62
59337;BME280;45115;52.002;4.686;2022-08-25T09:38:21;101591.38;;;32.20;35.29
59337;BME280;45115;52.002;4.686;2022-08-25T09:40:52;101590.56;;;32.27;35.47
59337;BME280;45115;52.002;4.686;2022-08-25T09:43:22;101583.50;;;32.22;36.03
59337;BME280;45115;52.002;4.686;2022-08-25T09:45:56;101580.44;;;32.10;34.57
59337;BME280;45115;52.002;4.686;2022-08-25T09:48:25;101584.03;;;31.99;35.28
59337;BME280;45115;52.002;4.686;2022-08-25T09:50:57;101585.63;;;31.93;36.26
59337;BME280;45115;52.002;4.686;2022-08-25T09:53:27;101569.66;;;31.51;37.09
59337;BME280;45115;52.002;4.686;2022-08-25T09:55:58;101572.06;;;31.27;38.49
59337;BME280;45115;52.002;4.686;2022-08-25T09:58:26;101573.28;;;30.90;39.50
59337;BME280;45115;52.002;4.686;2022-08-25T10:01:01;101566.13;;;30.31;39.98
59337;BME280;45115;52.002;4.686;2022-08-25T10:03:29;101566.34;;;29.89;41.06
59337;BME280;45115;52.002;4.686;2022-08-25T10:06:01;101562.75;;;29.67;42.06
59337;BME280;45115;52.002;4.686;2022-08-25T10:08:32;101563.13;;;29.65;42.33
59337;BME280;45115;52.002;4.686;2022-08-25T10:11:02;101555.66;;;29.59;42.27
59337;BME280;45115;52.002;4.686;2022-08-25T10:13:38;101570.53;;;29.61;42.68
59337;BME280;45115;52.002;4.686;2022-08-25T10:16:09;101564.69;;;29.66;41.62
59337;BME280;45115;52.002;4.686;2022-08-25T10:18:37;101547.50;;;29.66;42.16
59337;BME280;45115;52.002;4.686;2022-08-25T10:21:10;101554.53;;;29.63;41.04
59337;BME280;45115;52.002;4.686;2022-08-25T10:23:41;101547.91;;;29.72;41.77
59337;BME280;45115;52.002;4.686;2022-08-25T10:26:19;101544.44;;;29.78;42.78
59337;BME280;45115;52.002;4.686;2022-08-25T10:29:03;101539.78;;;29.86;42.48
59337;BME280;45115;52.002;4.686;2022-08-25T10:31:35;101540.97;;;30.00;42.26
59337;BME280;45115;52.002;4.686;2022-08-25T10:34:15;101541.47;;;30.16;41.23
59337;BME280;45115;52.002;4.686;2022-08-25T10:36:51;101539.19;;;30.55;41.04
59337;BME280;45115;52.002;4.686;2022-08-25T10:39:29;101541.56;;;30.71;40.49
59337;BME280;45115;52.002;4.686;2022-08-25T10:42:13;101538.06;;;30.85;41.03
59337;BME280;45115;52.002;4.686;2022-08-25T10:44:51;101541.13;;;31.23;41.08
59337;BME280;45115;52.002;4.686;2022-08-25T10:47:57;101534.69;;;31.88;40.90
59337;BME280;45115;52.002;4.686;2022-08-25T10:50:32;101531.31;;;32.83;38.26
59337;BME280;45115;52.002;4.686;2022-08-25T10:53:26;101530.81;;;33.69;34.88
59337;BME280;45115;52.002;4.686;2022-08-25T10:56:05;101526.59;;;34.23;34.02
59337;BME280;45115;52.002;4.686;2022-08-25T10:58:52;101524.91;;;34.53;31.83
59337;BME280;45115;52.002;4.686;2022-08-25T11:01:32;101525.19;;;34.86;32.41
59337;BME280;45115;52.002;4.686;2022-08-25T11:04:04;101524.91;;;35.01;31.36
59337;BME280;45115;52.002;4.686;2022-08-25T11:06:38;101521.47;;;35.57;29.48
59337;BME280;45115;52.002;4.686;2022-08-25T11:09:07;101518.78;;;35.74;29.02
59337;BME280;45115;52.002;4.686;2022-08-25T11:11:36;101526.13;;;35.81;29.22
59337;BME280;45115;52.002;4.686;2022-08-25T11:14:06;101527.50;;;35.89;28.85
59337;BME280;45115;52.002;4.686;2022-08-25T11:16:38;101525.09;;;35.91;28.81
59337;BME280;45115;52.002;4.686;2022-08-25T11:19:12;101525.22;;;36.04;28.96
59337;BME280;45115;52.002;4.686;2022-08-25T11:21:48;101519.22;;;36.06;28.48
59337;BME280;45115;52.002;4.686;2022-08-25T11:24:29;101504.03;;;35.81;27.95
59337;BME280;45115;52.002;4.686;2022-08-25T11:26:58;101515.09;;;35.81;28.21
59337;BME280;45115;52.002;4.686;2022-08-25T11:29:29;101502.50;;;35.59;27.82
59337;BME280;45115;52.002;4.686;2022-08-25T11:31:59;101506.19;;;35.73;28.79
59337;BME280;45115;52.002;4.686;2022-08-25T11:34:27;101514.41;;;36.10;29.11
59337;BME280;45115;52.002;4.686;2022-08-25T11:36:58;101510.31;;;36.18;28.19
59337;BME280;45115;52.002;4.686;2022-08-25T11:39:58;101507.19;;;36.16;27.06
59337;BME280;45115;52.002;4.686;2022-08-25T11:42:34;101504.38;;;35.83;28.76
59337;BME280;45115;52.002;4.686;2022-08-25T11:45:17;101498.56;;;35.77;27.97
59337;BME280;45115;52.002;4.686;2022-08-25T11:48:07;101491.72;;;36.02;28.66
59337;BME280;45115;52.002;4.686;2022-08-25T11:50:55;101491.66;;;36.22;29.70
59337;BME280;45115;52.002;4.686;2022-08-25T11:53:25;101489.56;;;36.26;27.99
59337;BME280;45115;52.002;4.686;2022-08-25T11:55:54;101489.22;;;36.41;27.53
59337;BME280;45115;52.002;4.686;2022-08-25T11:58:38;101494.66;;;36.44;25.90
59337;BME280;45115;52.002;4.686;2022-08-25T12:01:09;101489.50;;;36.30;26.54
59337;BME280;45115;52.002;4.686;2022-08-25T12:03:51;101489.53;;;35.76;25.99
59337;BME280;45115;52.002;4.686;2022-08-25T12:06:25;101485.50;;;35.61;27.41
59337;BME280;45115;52.002;4.686;2022-08-25T12:09:16;101480.47;;;35.76;26.51
59337;BME280;45115;52.002;4.686;2022-08-25T12:11:51;101476.88;;;35.96;28.15
59337;BME280;45115;52.002;4.686;2022-08-25T12:14:40;101470.66;;;36.08;28.01
59337;BME280;45115;52.002;4.686;2022-08-25T12:17:21;101475.50;;;36.37;27.47
59337;BME280;45115;52.002;4.686;2022-08-25T12:19:58;101478.84;;;36.45;26.32
59337;BME280;45115;52.002;4.686;2022-08-25T12:22:52;101465.72;;;35.99;26.22
59337;BME280;45115;52.002;4.686;2022-08-25T12:25:30;101468.69;;;35.92;25.96
59337;BME280;45115;52.002;4.686;2022-08-25T12:28:03;101468.91;;;35.64;28.58
59337;BME280;45115;52.002;4.686;2022-08-25T12:30:40;101465.13;;;35.38;27.35
59337;BME280;45115;52.002;4.686;2022-08-25T12:33:15;101463.50;;;35.41;27.71
59337;BME280;45115;52.002;4.686;2022-08-25T12:35:55;101464.50;;;35.67;27.95
59337;BME280;45115;52.002;4.686;2022-08-25T12:38:30;101457.34;;;35.70;26.65
59337;BME280;45115;52.002;4.686;2022-08-25T12:41:01;101456.16;;;35.87;26.42
59337;BME280;45115;52.002;4.686;2022-08-25T12:43:30;101453.84;;;35.86;25.84
59337;BME280;45115;52.002;4.686;2022-08-25T12:46:31;101451.75;;;35.73;25.71
59337;BME280;45115;52.002;4.686;2022-08-25T12:48:59;101453.91;;;35.45;25.52
59337;BME280;45115;52.002;4.686;2022-08-25T12:51:43;101456.75;;;35.78;24.59
59337;BME280;45115;52.002;4.686;2022-08-25T12:54:16;101446.78;;;36.18;26.83
59337;BME280;45115;52.002;4.686;2022-08-25T12:56:45;101452.63;;;36.37;24.39
59337;BME280;45115;52.002;4.686;2022-08-25T12:59:16;101449.72;;;35.57;25.94
59337;BME280;45115;52.002;4.686;2022-08-25T13:02:04;101450.16;;;35.56;27.39
59337;BME280;45115;52.002;4.686;2022-08-25T13:05:15;101448.56;;;35.91;26.47